Tiempo atmosférico en la estación meteorológica de Marbella, Puerto, Málaga (6 m.)



Fecha
DESCASC
Temp. máxima en grados centígrados (hora)
DESCASC
Temp. mínima en grados centígrados (hora)
DESCASC
Temp. media en grados centígrados
DESCASC
Racha de viento máxima en m/sg (hora)
DESCASC
Velocidad máxima media en intervalos de 10 minutos(hora)
DESCASC
Precipitaciones diarias en mm
DESCASC
Precipitaciones de 00:00 a 06:00 en mm
DESCASC
Precipitaciones de 06:00 a 12:00 en mm
DESCASC
Precipitaciones de 12:00 a 18:00 en mm
DESCASC
Precipitaciones de 18:00 a 24:00 en mm
DESCASC
05-12-2019 16.8 (10:50) 10.9 (07:10) 13.8 9.72 (14:10) 7.78 (14:10) 0 0 0 0 0
04-12-2019 19.5 (13:00) 11.7 (05:00) 15.6 13.06 (16:10) 11.11 (16:20) 0 0 0 0 0
03-12-2019 15.9 (11:20) 12.9 (00:00) 14.4 8.89 (00:50) 6.67 (00:50) 0 0 0 0 0
02-12-2019 14.7 (18:50) 11.6 (00:00) 13.2 10 (21:20) 7.22 (20:50) 2.6 0 0 2.2 0.4
01-12-2019 19.7 (13:40) 12.1 (00:00) 15.9 11.39 (16:30) 8.33 (16:00) 0.2 0 0 0.2 0
30-11-2019 18.3 (16:40) 12.5 (00:00) 15.4 3.89 (06:10) 2.78 (06:10) 0 0 0 0 0
29-11-2019 19.9 (16:30) 12.5 (00:00) 16.2 4.72 (00:10) 3.33 (00:10) 0 0 0 0 0
28-11-2019 19.7 (14:40) 12.3 (00:00) 16 5 (04:40) 3.06 (04:40) 0 0 0 0 0
27-11-2019 18.7 (10:10) 14 (00:00) 16.4 12.5 (14:00) 10.28 (14:00) 0 0 0 0 0
26-11-2019 19.6 (15:00) 13.3 (00:00) 16.5 12.22 (16:30) 10 (16:20) 0 0 0 0 0
25-11-2019 20.8 (15:20) 11.1 (00:00) 15.9 12.78 (16:00) 10.56 (16:00) 0 0 0 0 0
24-11-2019 18.1 (17:10) 10.3 (00:00) 14.2 6.67 (00:10) 4.17 (13:40) 0 0 0 0 0
23-11-2019 19.5 (15:00) 13.6 (00:00) 16.6 15.83 (03:40) 10.28 (06:00) 0 0 0 0 0
22-11-2019 18.5 (18:30) 14 (00:00) 16.3 22.5 (18:40) 15.83 (18:30) 9.8 0 6.6 1.2 2
21-11-2019 14.7 (21:00) 11.7 (00:00) 13.2 5.28 (18:20) 3.33 (15:40) 11.4 0.8 8 2.6 0
20-11-2019 13.3 (16:10) 9.3 (00:00) 11.3 4.72 (07:50) 3.06 (07:50) 0.2 0 0.2 0 0
19-11-2019 17.5 (13:40) 10.1 (00:00) 13.8 5.56 (18:10) 3.89 (18:40) 0 0 0 0 0
18-11-2019 17.9 (12:10) 11.3 (00:00) 14.6 15.56 (02:50) 12.5 (05:00) 0 0 0 0 0
17-11-2019 16.1 (10:10) 10 (00:00) 13.1 16.67 (14:10) 12.78 (14:10) 0 0 0 0 0
16-11-2019 18.6 (15:50) 8.1 (00:00) 13.4 6.67 (16:20) 4.72 (16:20) 0 0 0 0 0
15-11-2019 17.3 (14:30) 10.5 (00:00) 13.9 11.39 (05:30) 7.22 (05:30) 0 0 0 0 0
14-11-2019 17.6 (14:20) 13.7 (00:00) 15.7 16.11 (11:30) 10 (11:30) 0 0 0 0 0
13-11-2019 21 (17:10) 14.1 (00:00) 17.6 14.72 (13:40) 11.94 (13:40) 0 0 0 0 0
12-11-2019 20.5 (09:40) 14.4 (00:00) 17.4 10.83 (23:30) 8.33 (23:40) 0 0 0 0 0
11-11-2019 19.2 (15:40) 14.1 (07:30) 16.7 11.11 (13:50) 8.33 (12:50) 0 0 0 0 0
10-11-2019 20.3 (14:50) 15.5 (00:00) 17.9 12.78 (17:10) 8.06 (00:10) 0 0 0 0 0
09-11-2019 19.1 (16:10) 10.7 (00:00) 14.9 10 (23:59) 8.33 (23:59) 0 0 0 0 0
08-11-2019 19.6 (16:30) 11.7 (00:00) 15.7 10.83 (14:30) 5.28 (14:30) 0 0 0 0 0

Gráficas

Temp. máximas Temp. mínimas Temp. medias Precipitaciones Rachas de viento máximas Velocidades máximas media en intervalos de 10 minutos

Datos horarios

Fecha y hora oficial Temperatura (ºC) Velocidad del viento (km/h) Dirección del viento Racha (km/h) Dirección de racha Precipitación (mm) Presión (hPa) Tendencia (hPa) Humedad (%)
2019-12-07 23:00:00 12.6 10 Norte 14 Noroeste 0 -- -- 85
2019-12-07 22:00:00 13.1 8 Norte 14 Norte 0 -- -- 84
2019-12-07 21:00:00 13.8 7 Noroeste 11 Noroeste 0 -- -- 84
2019-12-07 20:00:00 15 3 Norte 6 Norte 0 -- -- 83
2019-12-07 19:00:00 15.7 4 Oeste 6 Oeste 0 -- -- 85
2019-12-07 18:00:00 16.6 4 Sudoeste 6 Oeste 0 -- -- 79
2019-12-07 17:00:00 18.8 3 Sudoeste 8 Oeste 0 -- -- 73
2019-12-07 16:00:00 18.7 5 Sudoeste 5 Sudoeste 0 -- -- 71
2019-12-07 15:00:00 18.9 4 Sudoeste 6 Sudoeste 0 -- -- 71
2019-12-07 14:00:00 18.5 6 Sudoeste 10 Sudoeste 0 -- -- 74
2019-12-07 13:00:00 17.3 11 Sudoeste 13 Sudoeste 0 -- -- 77
2019-12-07 12:00:00 16.3 9 Sudoeste 10 Sur 0 -- -- 75
2019-12-07 11:00:00 18.9 0 Calma 8 Norte 0 -- -- 58
2019-12-07 10:00:00 15.9 2 Norte 10 Noroeste 0 -- -- 64
2019-12-07 09:00:00 14 6 Noroeste 13 Noroeste 0 -- -- 71
2019-12-07 08:00:00 13.6 9 Norte 14 Norte 0 -- -- 75
2019-12-07 07:00:00 13.7 7 Noroeste 12 Noroeste 0 -- -- 75
2019-12-07 06:00:00 13.8 8 Noroeste 16 Norte 0 -- -- 74
2019-12-07 05:00:00 13.9 8 Noroeste 14 Noroeste 0 -- -- 74
2019-12-07 04:00:00 13.8 11 Norte 15 Norte 0 -- -- 76
2019-12-07 03:00:00 14 9 Norte 15 Norte 0 -- -- 76
2019-12-07 02:00:00 14.5 9 Noroeste 18 Norte 0 -- -- 75
2019-12-07 01:00:00 15.9 9 Nordeste 17 Nordeste 0 -- -- 78
2019-12-07 00:00:00 15.6 8 Nordeste 16 Nordeste 0 -- -- 79
2019-12-06 23:00:00 15.7 12 Nordeste 18 Nordeste 0 -- -- 78
2019-12-06 22:00:00 15.9 15 Nordeste 23 Nordeste 0 -- -- 78
2019-12-06 21:00:00 15.9 14 Nordeste 23 Nordeste 0 -- -- 78
2019-12-06 20:00:00 16.2 18 Nordeste 27 Este 0 -- -- 76
2019-12-06 19:00:00 16.1 17 Este 27 Este 0 -- -- 77
2019-12-06 18:00:00 16.2 18 Este 22 Este 0 -- -- 78
2019-12-06 17:00:00 16.5 17 Este 22 Este 0 -- -- 75
2019-12-06 16:00:00 16.8 19 Este 25 Este 0 -- -- 70
2019-12-06 15:00:00 16.7 14 Sudeste 22 Este 0 -- -- 71
2019-12-06 14:00:00 16.6 17 Este 30 Sudeste 0 -- -- 72
2019-12-06 13:00:00 16.9 21 Este 29 Este 0 -- -- 71
2019-12-06 12:00:00 16.6 17 Este 27 Este 0 -- -- 72
2019-12-06 11:00:00 17.3 16 Este 26 Este 0 -- -- 70
2019-12-06 10:00:00 17.1 16 Este 27 Nordeste 0 -- -- 69
2019-12-06 09:00:00 16.1 13 Nordeste 23 Nordeste 0 -- -- 71
2019-12-06 08:00:00 14.6 6 Norte 9 Nordeste 0 -- -- 73
2019-12-06 07:00:00 13.7 5 Norte 9 Noroeste 0 -- -- 77
2019-12-06 06:00:00 12.7 8 Noroeste 11 Norte 0 -- -- 81
2019-12-06 05:00:00 13 6 Noroeste 10 Norte 0 -- -- 81
2019-12-06 04:00:00 13.3 8 Norte 12 Norte 0 -- -- 80
2019-12-06 03:00:00 13.3 8 Noroeste 12 Norte 0 -- -- 82
2019-12-06 02:00:00 14.2 6 Oeste 8 Oeste 0 -- -- 83
2019-12-06 01:00:00 15.2 5 Este 16 Este 0 -- -- 81
2019-12-06 00:00:00 15.5 15 Este 22 Nordeste 0 -- -- 79
2019-12-05 23:00:00 15.5 16 Nordeste 23 Este 0 -- -- 78
2019-12-05 22:00:00 15.5 18 Este 32 Este 0 -- -- 78
2019-12-05 21:00:00 15.6 22 Nordeste 33 Nordeste 0 -- -- 74
2019-12-05 20:00:00 15.5 18 Nordeste 27 Nordeste 0 -- -- 74
2019-12-05 19:00:00 15.2 19 Nordeste 32 Este 0 -- -- 82
2019-12-05 18:00:00 15.4 24 Este 32 Nordeste 0 -- -- 79
2019-12-05 17:00:00 15.5 19 Nordeste 30 Este 0 -- -- 65
2019-12-05 16:00:00 15.3 19 Este 28 Este 0 -- -- 69
2019-12-05 15:00:00 15.1 23 Este 35 Este 0 -- -- 76
2019-12-05 14:00:00 14.9 28 Este 33 Este 0 -- -- 78
2019-12-05 13:00:00 14.9 14 Sudeste 21 Sudeste 0 -- -- 76
2019-12-05 12:00:00 15.3 10 Sudeste 18 Este 0 -- -- 70
2019-12-05 11:00:00 16.7 8 Este 10 Nordeste 0 -- -- 62
2019-12-05 10:00:00 15 5 Norte 16 Norte 0 -- -- 58
2019-12-05 09:00:00 12.1 6 Noroeste 15 Norte 0 -- -- 66
2019-12-05 08:00:00 11.1 12 Norte 18 Noroeste 0 -- -- 69
2019-12-05 07:00:00 11 11 Norte 19 Noroeste 0 -- -- 70
2019-12-05 06:00:00 11.4 7 Norte 11 Norte 0 -- -- 71
2019-12-05 05:00:00 11.9 4 Norte 10 Norte 0 -- -- 71
2019-12-05 04:00:00 12.3 0 Calma 5 Nordeste 0 -- -- 69
2019-12-05 03:00:00 12.4 3 Noroeste 9 Noroeste 0 -- -- 65
2019-12-05 02:00:00 12.4 3 Noroeste 5 Oeste 0 -- -- 65
2019-12-05 01:00:00 12.1 0 Calma 13 Norte 0 -- -- 68
2019-12-05 00:00:00 12 6 Norte 12 Norte 0 -- -- 69
2019-12-04 23:00:00 11.8 6 Noroeste 11 Norte 0 -- -- 71
2019-12-04 22:00:00 12.6 5 Oeste 10 Sudoeste 0 -- -- 65
2019-12-04 21:00:00 13.5 5 Sur 15 Oeste 0 -- -- 65
2019-12-04 20:00:00 14 6 Oeste 16 Oeste 0 -- -- 63
2019-12-04 19:00:00 14.4 9 Oeste 26 Oeste 0 -- -- 62
2019-12-04 18:00:00 14.7 21 Oeste 42 Oeste 0 -- -- 66
2019-12-04 17:00:00 15.7 36 Sudoeste 47 Sudoeste 0 -- -- 67
2019-12-04 16:00:00 16.2 32 Sudoeste 44 Sudoeste 0 -- -- 69
2019-12-04 15:00:00 16 37 Sudoeste 46 Sudoeste 0 -- -- 65
2019-12-04 14:00:00 17.6 24 Sudoeste 46 Sudoeste 0 -- -- 54
2019-12-04 13:00:00 19.5 18 Oeste 30 Oeste 0 -- -- 51
2019-12-04 12:00:00 16 22 Sudoeste 39 Sudoeste 0 -- -- 76
2019-12-04 11:00:00 15.5 24 Sudoeste 29 Sudoeste 0 -- -- 79
2019-12-04 10:00:00 17.1 10 Oeste 15 Oeste 0 -- -- 66
2019-12-04 09:00:00 13.2 3 Norte 9 Oeste 0 -- -- 79
2019-12-04 08:00:00 12.8 9 Oeste 27 Oeste 0 -- -- 80
2019-12-04 07:00:00 13.3 13 Oeste 29 Sudoeste 0 -- -- 79
2019-12-04 06:00:00 13.2 14 Oeste 23 Oeste 0 -- -- 83
2019-12-04 05:00:00 11.7 3 Oeste 12 Oeste 0 -- -- 88
2019-12-04 04:00:00 12 5 Noroeste 9 Noroeste 0 -- -- 89
2019-12-04 03:00:00 12.7 3 Noroeste 8 Norte 0 -- -- 87
2019-12-04 02:00:00 13.3 0 Calma 4 Sur 0 -- -- 87
2019-12-04 01:00:00 13.5 2 Norte 6 Norte 0 -- -- 86
2019-12-04 00:00:00 13.6 3 Oeste 7 Oeste 0 -- -- 86
2019-12-03 23:00:00 13.8 2 Oeste 8 Noroeste 0 -- -- 86
2019-12-03 22:00:00 13.9 4 Noroeste 6 Norte 0 -- -- 87
2019-12-03 21:00:00 14.1 2 Norte 5 Noroeste 0 -- -- 86
2019-12-03 20:00:00 14.3 0 Calma 8 Noroeste 0 -- -- 86
2019-12-03 19:00:00 14.2 0 Calma 6 Sudoeste 0 -- -- 88
2019-12-03 18:00:00 14.7 5 Sudoeste 13 Oeste 0 -- -- 86
2019-12-03 17:00:00 14.9 11 Sudoeste 17 Sudoeste 0 -- -- 83
2019-12-03 16:00:00 15.3 15 Sudoeste 21 Sudoeste 0 -- -- 79
2019-12-03 15:00:00 15.4 14 Sudoeste 17 Sudoeste 0 -- -- 80
2019-12-03 14:00:00 14.9 8 Noroeste 19 Sudeste 0 -- -- 78
2019-12-03 13:00:00 15.2 13 Este 26 Este 0 -- -- 77
2019-12-03 12:00:00 15.4 13 Sudeste 19 Sudeste 0 -- -- 73
2019-12-03 11:00:00 15.5 3 Este 12 Nordeste 0 -- -- 68
2019-12-03 10:00:00 14.4 3 Sudoeste 9 Noroeste 0 -- -- 76
2019-12-03 09:00:00 13.3 4 Oeste 12 Oeste 0 -- -- 81
2019-12-03 08:00:00 13.3 9 Oeste 12 Oeste 0 -- -- 83
2019-12-03 07:00:00 13 4 Oeste 13 Oeste 0 -- -- 84
2019-12-03 06:00:00 13.5 3 Oeste 6 Noroeste 0 -- -- 85
2019-12-03 05:00:00 13.5 5 Noroeste 13 Norte 0 -- -- 83
2019-12-03 04:00:00 14.1 8 Norte 19 Noroeste 0 -- -- 79
2019-12-03 03:00:00 13.3 5 Noroeste 18 Nordeste 0 -- -- 87
2019-12-03 02:00:00 13.9 12 Nordeste 27 Nordeste 0 -- -- 87
2019-12-03 01:00:00 14.1 23 Nordeste 32 Este 0 -- -- 90
2019-12-03 00:00:00 14.6 25 Este 31 Este 0 -- -- 88
2019-12-02 23:00:00 14.3 17 Nordeste 32 Nordeste 0.4 -- -- 90
2019-12-02 22:00:00 14.5 20 Nordeste 36 Nordeste 0 -- -- 83
2019-12-02 21:00:00 14.7 25 Nordeste 33 Nordeste 0 -- -- 79
2019-12-02 20:00:00 14.5 20 Nordeste 31 Este 0 -- -- 86
2019-12-02 19:00:00 14.6 23 Nordeste 31 Este 0 -- -- 85
2019-12-02 18:00:00 14.3 18 Nordeste 26 Nordeste 0 -- -- 79
2019-12-02 17:00:00 13.6 9 Norte 16 Norte 0 -- -- 84
2019-12-02 16:00:00 13 6 Norte 17 Noroeste 0 -- -- 85
2019-12-02 15:00:00 12 9 Norte 18 Noroeste 1.8 -- -- 92
2019-12-02 14:00:00 12.4 10 Nordeste 15 Nordeste 0.2 -- -- 92
2019-12-02 13:00:00 12.3 9 Norte 12 Norte 0.2 -- -- 91
2019-12-02 12:00:00 12.6 7 Oeste 15 Sur 0 -- -- 88
2019-12-02 11:00:00 13.1 15 Nordeste 28 Nordeste 0 -- -- 86
2019-12-02 10:00:00 13.6 12 Nordeste 16 Nordeste 0 -- -- 84
2019-12-02 09:00:00 13 13 Nordeste 19 Nordeste 0 -- -- 90
2019-12-02 08:00:00 13.1 8 Sudeste 22 Sur 0 -- -- 88
2019-12-02 07:00:00 12.8 5 Nordeste 13 Norte 0 -- -- 88
2019-12-02 06:00:00 12.2 5 Norte 13 Noroeste 0 -- -- 88
2019-12-02 05:00:00 11.9 6 Norte 12 Noroeste 0 -- -- 89
2019-12-02 04:00:00 11.7 5 Norte 10 Noroeste 0 -- -- 90
2019-12-02 03:00:00 12 2 Norte 12 Norte 0 -- -- 89
2019-12-02 02:00:00 12.5 5 Norte 10 Norte 0 -- -- 87
2019-12-02 01:00:00 12.2 7 Noroeste 10 Noroeste 0 -- -- 88
2019-12-02 00:00:00 12.1 6 Norte 9 Noroeste 0 -- -- 89
2019-12-01 23:00:00 13 3 Noroeste 13 Oeste 0 -- -- 85
2019-12-01 22:00:00 13.2 4 Oeste 17 Oeste 0 -- -- 87
2019-12-01 21:00:00 13.7 9 Oeste 28 Sudoeste 0 -- -- 89
2019-12-01 20:00:00 14.2 19 Sudoeste 24 Oeste 0 -- -- 92
2019-12-01 19:00:00 14 15 Oeste 32 Sudoeste 0 -- -- 92
2019-12-01 18:00:00 14.6 23 Sudoeste 36 Oeste 0.2 -- -- 87
2019-12-01 17:00:00 15.3 22 Oeste 41 Sudoeste 0 -- -- 81
2019-12-01 16:00:00 16.3 30 Sudoeste 37 Sudoeste 0 -- -- 73
2019-12-01 15:00:00 17.1 28 Sudoeste 38 Sudoeste 0 -- -- 66
2019-12-01 14:00:00 17.1 17 Nordeste 27 Sudoeste 0 -- -- 70
2019-12-01 13:00:00 16.1 23 Sudoeste 35 Sudoeste 0 -- -- 72
2019-12-01 12:00:00 15.6 28 Sudoeste 37 Sudoeste 0 -- -- 82
2019-12-01 11:00:00 16.8 11 Sudoeste 26 Sudoeste 0 -- -- 73
2019-12-01 10:00:00 15.8 5 Oeste 18 Sudoeste 0 -- -- 83
2019-12-01 09:00:00 14.6 5 Oeste 10 Oeste 0 -- -- 91
2019-12-01 08:00:00 14.5 5 Norte 9 Este 0 -- -- 92
2019-12-01 07:00:00 14.8 5 Este 13 Nordeste 0 -- -- 88
2019-12-01 06:00:00 14.6 3 Oeste 11 Noroeste 0 -- -- 86
2019-12-01 05:00:00 14.9 4 Norte 21 Oeste 0 -- -- 88
2019-12-01 04:00:00 15.6 13 Oeste 19 Oeste 0 -- -- 87
2019-12-01 03:00:00 15.2 13 Oeste 28 Sudoeste 0 -- -- 85
2019-12-01 02:00:00 12.9 6 Noroeste 16 Noroeste 0 -- -- 83
2019-12-01 01:00:00 12.8 5 Norte 14 Oeste 0 -- -- 84
2019-12-01 00:00:00 13.2 3 Sudoeste 14 Noroeste 0 -- -- 85
2019-11-30 23:00:00 13.1 6 Noroeste 12 Norte 0 -- -- 85
2019-11-30 22:00:00 13.5 6 Norte 11 Norte 0 -- -- 86
2019-11-30 21:00:00 13.8 4 Norte 7 Norte 0 -- -- 87
2019-11-30 20:00:00 14.1 3 Norte 8 Sudeste 0 -- -- 88
2019-11-30 19:00:00 14.4 2 Norte 6 Norte 0 -- -- 90
2019-11-30 18:00:00 15.7 2 Nordeste 3 Nordeste 0 -- -- 85
2019-11-30 17:00:00 18.2 2 Sudoeste 7 Sudoeste 0 -- -- 76
2019-11-30 16:00:00 16.6 5 Sur 6 Sur 0 -- -- 81
2019-11-30 15:00:00 17.1 3 Este 4 Sudeste 0 -- -- 78
2019-11-30 14:00:00 17.3 2 Sudeste 3 Sur 0 -- -- 75
2019-11-30 13:00:00 17.3 0 Calma 5 Sur 0 -- -- 74
2019-11-30 12:00:00 16 4 Sur 6 Sudoeste 0 -- -- 75
2019-11-30 11:00:00 16.3 5 Sudoeste 6 Sudoeste 0 -- -- 75
2019-11-30 10:00:00 16.4 0 Calma 5 Norte 0 -- -- 69
2019-11-30 09:00:00 13.4 3 Norte 7 Norte 0 -- -- 74
2019-11-30 08:00:00 12.6 3 Norte 13 Noroeste 0 -- -- 77
2019-11-30 07:00:00 12.9 8 Noroeste 14 Norte 0 -- -- 74
2019-11-30 06:00:00 12.7 7 Noroeste 11 Noroeste 0 -- -- 76
2019-11-30 05:00:00 12.9 8 Noroeste 11 Noroeste 0 -- -- 76
2019-11-30 04:00:00 12.5 6 Noroeste 10 Noroeste 0 -- -- 82
2019-11-30 03:00:00 13.6 4 Noroeste 11 Noroeste 0 -- -- 82
2019-11-30 02:00:00 13.8 5 Oeste 14 Oeste 0 -- -- 85
2019-11-30 01:00:00 14 4 Noroeste 7 Oeste 0 -- -- 76
2019-11-30 00:00:00 14.5 4 Oeste 14 Norte 0 -- -- 75
2019-11-29 23:00:00 14.5 4 Nordeste 9 Nordeste 0 -- -- 81
2019-11-29 22:00:00 15.3 7 Nordeste 15 Noroeste 0 -- -- 74
2019-11-29 21:00:00 16.1 9 Noroeste 15 Norte 0 -- -- 72
2019-11-29 20:00:00 14.9 2 Nordeste 6 Norte 0 -- -- 82
2019-11-29 19:00:00 15.5 5 Nordeste 6 Nordeste 0 -- -- 84
2019-11-29 18:00:00 16.4 5 Nordeste 8 Nordeste 0 -- -- 81
2019-11-29 17:00:00 19.2 3 Sudoeste 5 Sudoeste 0 -- -- 68
2019-11-29 16:00:00 18.7 2 Sudoeste 5 Sudoeste 0 -- -- 71
2019-11-29 15:00:00 17.9 3 Sur 6 Sudeste 0 -- -- 73
2019-11-29 14:00:00 17.6 3 Sudoeste 8 Sudoeste 0 -- -- 75
2019-11-29 13:00:00 17.7 4 Sudoeste 10 Sudoeste 0 -- -- 74
2019-11-29 12:00:00 16.7 7 Sudoeste 10 Sudoeste 0 -- -- 74
2019-11-29 11:00:00 16.7 3 Sudoeste 8 Sudoeste 0 -- -- 72
2019-11-29 10:00:00 16.4 4 Sudoeste 7 Sudoeste 0 -- -- 70
2019-11-29 09:00:00 15.2 2 Noroeste 9 Noroeste 0 -- -- 70
2019-11-29 08:00:00 13 0 Calma 5 Noroeste 0 -- -- 76
2019-11-29 07:00:00 13.2 3 Oeste 9 Noroeste 0 -- -- 73
2019-11-29 06:00:00 12.9 5 Noroeste 6 Noroeste 0 -- -- 74
2019-11-29 05:00:00 12.8 0 Calma 4 Noroeste 0 -- -- 76
2019-11-29 04:00:00 12.7 3 Oeste 7 Noroeste 0 -- -- 81
2019-11-29 03:00:00 13.5 3 Noroeste 6 Noroeste 0 -- -- 79
2019-11-29 02:00:00 13.6 0 Calma 10 Noroeste 0 -- -- 77
2019-11-29 01:00:00 14.3 5 Noroeste 17 Norte 0 -- -- 73
2019-11-29 00:00:00 14.6 10 Norte 16 Norte 0 -- -- 73
2019-11-28 23:00:00 14.1 3 Nordeste 9 Noroeste 0 -- -- 82
2019-11-28 22:00:00 14.4 4 Sudoeste 10 Noroeste 0 -- -- 79
2019-11-28 21:00:00 14.7 7 Oeste 12 Oeste 0 -- -- 79
2019-11-28 20:00:00 15 4 Norte 9 Noroeste 0 -- -- 77
2019-11-28 19:00:00 15.8 4 Norte 7 Noroeste 0 -- -- 72
2019-11-28 18:00:00 16.4 6 Este 9 Este 0 -- -- 77
2019-11-28 17:00:00 18.4 3 Nordeste 6 Sudeste 0 -- -- 68
2019-11-28 16:00:00 17.8 5 Sudeste 10 Sudeste 0 -- -- 72
2019-11-28 15:00:00 18.5 5 Este 6 Este 0 -- -- 64
2019-11-28 14:00:00 18.9 5 Nordeste 6 Nordeste 0 -- -- 59
2019-11-28 13:00:00 17.1 7 Nordeste 10 Nordeste 0 -- -- 73
2019-11-28 12:00:00 17.2 3 Sudoeste 10 Sudeste 0 -- -- 75
2019-11-28 11:00:00 18 0 Calma 8 Norte 0 -- -- 66
2019-11-28 10:00:00 16.9 7 Noroeste 14 Noroeste 0 -- -- 63
2019-11-28 09:00:00 15 6 Noroeste 10 Noroeste 0 -- -- 70
2019-11-28 08:00:00 12.5 2 Noroeste 10 Sudoeste 0 -- -- 78
2019-11-28 07:00:00 12.6 4 Noroeste 17 Noroeste 0 -- -- 79
2019-11-28 06:00:00 12.6 6 Noroeste 14 Norte 0 -- -- 79
2019-11-28 05:00:00 13 9 Noroeste 18 Norte 0 -- -- 78
2019-11-28 04:00:00 12.9 3 Norte 5 Oeste 0 -- -- 83
2019-11-28 03:00:00 13.2 3 Noroeste 15 Norte 0 -- -- 80
2019-11-28 02:00:00 13.3 5 Noroeste 14 Noroeste 0 -- -- 81
2019-11-28 01:00:00 13.6 5 Norte 12 Noroeste 0 -- -- 85
2019-11-28 00:00:00 14.1 5 Norte 9 Nordeste 0 -- -- 88
2019-11-27 23:00:00 14.8 2 Nordeste 20 Noroeste 0 -- -- 84
2019-11-27 22:00:00 15 3 Noroeste 9 Oeste 0 -- -- 85
2019-11-27 21:00:00 15.4 6 Norte 18 Sudoeste 0 -- -- 86
2019-11-27 20:00:00 16.4 10 Sudoeste 28 Sudoeste 0 -- -- 84
2019-11-27 19:00:00 17 14 Oeste 29 Oeste 0 -- -- 81
2019-11-27 18:00:00 16.9 11 Sudoeste 29 Sudoeste 0 -- -- 82
2019-11-27 17:00:00 16.6 21 Sudoeste 37 Sudoeste 0 -- -- 87
2019-11-27 16:00:00 16.3 32 Sudoeste 41 Sudoeste 0 -- -- 89
2019-11-27 15:00:00 16.5 35 Sudoeste 44 Sudoeste 0 -- -- 88
2019-11-27 14:00:00 16 37 Sudoeste 45 Sudoeste 0 -- -- 91
2019-11-27 06:00:00 -- -- -- -- -- -- -- -- --
2019-11-27 05:00:00 -- -- -- -- -- -- -- -- --
2019-11-27 04:00:00 16.5 26 Sudoeste 36 Oeste 0 -- -- 86
2019-11-27 03:00:00 16.8 23 Oeste 30 Oeste 0 -- -- 82
2019-11-27 02:00:00 18.1 9 Oeste 26 Sudoeste 0 -- -- 72
2019-11-27 01:00:00 17.1 22 Sudoeste 36 Sudoeste 0 -- -- 77
2019-11-27 00:00:00 17.2 30 Sudoeste 37 Sudoeste 0 -- -- 77
2019-11-26 23:00:00 17.8 13 Oeste 24 Oeste 0 -- -- 69
2019-11-26 22:00:00 17.3 17 Sudoeste 27 Sudoeste 0 -- -- 74
2019-11-26 21:00:00 16.5 20 Sudoeste 27 Oeste 0 -- -- 83
2019-11-26 20:00:00 18.2 16 Oeste 32 Oeste 0 -- -- 69
2019-11-26 19:00:00 17 22 Sudoeste 34 Oeste 0 -- -- 81
2019-11-26 18:00:00 18.2 24 Sudoeste 39 Sudoeste 0 -- -- 76
2019-11-26 17:00:00 17.7 30 Sudoeste 44 Sudoeste 0 -- -- 84
2019-11-26 16:00:00 17.2 34 Sudoeste 39 Sudoeste 0 -- -- 88
2019-11-26 15:00:00 19.6 16 Oeste 30 Oeste 0 -- -- 76
2019-11-26 14:00:00 17.9 7 Este 12 Sudeste 0 -- -- 80
2019-11-26 13:00:00 17.3 10 Este 11 Este 0 -- -- 80
2019-11-26 12:00:00 18.6 4 Nordeste 12 Nordeste 0 -- -- 73
2019-11-26 11:00:00 17.3 7 Sudoeste 11 Oeste 0 -- -- 78
2019-11-26 10:00:00 18.4 2 Oeste 17 Noroeste 0 -- -- 70
2019-11-26 09:00:00 15.9 12 Norte 17 Noroeste 0 -- -- 75
2019-11-26 08:00:00 13.5 11 Norte 16 Norte 0 -- -- 85
2019-11-26 07:00:00 13.5 2 Noroeste 14 Norte 0 -- -- 88
2019-11-26 06:00:00 13.6 4 Norte 15 Norte 0 -- -- 89
2019-11-26 05:00:00 14.1 8 Norte 13 Noroeste 0 -- -- 87
2019-11-26 04:00:00 14.3 6 Noroeste 14 Norte 0 -- -- 92
2019-11-26 03:00:00 14.1 2 Norte 13 Norte 0 -- -- 92
2019-11-26 02:00:00 14.9 4 Noroeste 11 Norte 0 -- -- 90
2019-11-26 01:00:00 15.4 5 Norte 12 Oeste 0 -- -- 89
2019-11-26 00:00:00 16.7 8 Noroeste 18 Noroeste 0 -- -- 89
2019-11-25 23:00:00 16.4 5 Noroeste 36 Oeste 0 -- -- 90
2019-11-25 22:00:00 16.2 23 Oeste 34 Oeste 0 -- -- 88
2019-11-25 21:00:00 17.5 16 Oeste 33 Oeste 0 -- -- 85
2019-11-25 20:00:00 17.4 4 Nordeste 34 Oeste 0 -- -- 83
2019-11-25 19:00:00 17.1 26 Oeste 36 Sudoeste 0 -- -- 84
2019-11-25 18:00:00 17.3 25 Sudoeste 35 Oeste 0 -- -- 81
2019-11-25 17:00:00 19.8 26 Oeste 42 Sudoeste 0 -- -- 70
2019-11-25 16:00:00 17.8 38 Sudoeste 46 Sudoeste 0 -- -- 79
2019-11-25 15:00:00 18.5 7 Este 17 Nordeste 0 -- -- 74
2019-11-25 14:00:00 16.8 11 Nordeste 15 Nordeste 0 -- -- 81
2019-11-25 13:00:00 16.2 10 Nordeste 18 Nordeste 0 -- -- 79
2019-11-25 12:00:00 18.7 3 Sudeste 13 Este 0 -- -- 72
2019-11-25 11:00:00 17.5 9 Sur 25 Sur 0 -- -- 75
2019-11-25 10:00:00 15.5 12 Nordeste 17 Nordeste 0 -- -- 73
2019-11-25 09:00:00 14.2 4 Norte 8 Norte 0 -- -- 73
2019-11-25 08:00:00 11.7 8 Noroeste 16 Norte 0 -- -- 77
2019-11-25 07:00:00 11.6 8 Noroeste 17 Noroeste 0 -- -- 75
2019-11-25 06:00:00 11.9 4 Norte 15 Noroeste 0 -- -- 73
2019-11-25 05:00:00 11.1 7 Noroeste 13 Noroeste 0 -- -- 75
2019-11-25 04:00:00 11.4 2 Nordeste 7 Oeste 0 -- -- 75
2019-11-25 03:00:00 11.4 3 Noroeste 13 Norte 0 -- -- 71
2019-11-25 02:00:00 11.5 7 Noroeste 17 Norte 0 -- -- 71
2019-11-25 01:00:00 11.4 9 Noroeste 17 Noroeste 0 -- -- 71
2019-11-25 00:00:00 11.7 10 Noroeste 14 Noroeste 0 -- -- 70
2019-11-24 23:00:00 11.9 8 Norte 16 Norte 0 -- -- 68
2019-11-24 22:00:00 12.5 8 Noroeste 16 Noroeste 0 -- -- 66
2019-11-24 21:00:00 13.6 7 Norte 12 Noroeste 0 -- -- 60
2019-11-24 20:00:00 14.3 5 Noroeste 10 Noroeste 0 -- -- 60
2019-11-24 19:00:00 14.5 4 Oeste 8 Oeste 0 -- -- 61
2019-11-24 18:00:00 16.8 0 Calma 9 Nordeste 0 -- -- 54
2019-11-24 17:00:00 17.9 2 Norte 13 Nordeste 0 -- -- 63
2019-11-24 16:00:00 16.7 12 Este 17 Nordeste 0 -- -- 72
2019-11-24 15:00:00 16.3 13 Este 19 Nordeste 0 -- -- 71
2019-11-24 14:00:00 16.1 13 Este 19 Este 0 -- -- 70
2019-11-24 13:00:00 16.6 5 Este 10 Este 0 -- -- 58
2019-11-24 12:00:00 15.7 7 Este 10 Este 0 -- -- 62
2019-11-24 11:00:00 15.5 7 Nordeste 15 Norte 0 -- -- 69
2019-11-24 10:00:00 14.3 5 Nordeste 19 Oeste 0 -- -- 59
2019-11-24 09:00:00 14.5 8 Oeste 19 Oeste 0 -- -- 56
2019-11-24 08:00:00 10.6 3 Este 10 Este 0 -- -- 74
2019-11-24 07:00:00 11.4 3 Noroeste 10 Oeste 0 -- -- 73
2019-11-24 06:00:00 12.1 5 Noroeste 20 Oeste 0 -- -- 70
2019-11-24 05:00:00 13.4 9 Oeste 20 Oeste 0 -- -- 59
2019-11-24 04:00:00 11.7 5 Norte 12 Norte 0 -- -- 69
2019-11-24 03:00:00 11.7 6 Noroeste 11 Noroeste 0 -- -- 71
2019-11-24 02:00:00 12.8 3 Norte 10 Norte 0 -- -- 66
2019-11-24 01:00:00 13 3 Sudoeste 24 Oeste 0 -- -- 74
2019-11-24 00:00:00 14.1 13 Oeste 24 Sudoeste 0 -- -- 69
2019-11-23 23:00:00 14.2 13 Sudoeste 18 Sudoeste 0 -- -- 73
2019-11-23 22:00:00 13.8 3 Noroeste 23 Oeste 0 -- -- 69
2019-11-23 21:00:00 14.6 13 Oeste 33 Oeste 0 -- -- 70
2019-11-23 20:00:00 14.9 29 Oeste 37 Oeste 0 -- -- 76
2019-11-23 19:00:00 15.5 8 Oeste 25 Oeste 0 -- -- 56
2019-11-23 18:00:00 16.7 17 Oeste 30 Oeste 0 -- -- 45
2019-11-23 17:00:00 18.8 10 Noroeste 28 Oeste 0 -- -- 42
2019-11-23 16:00:00 19.2 17 Oeste 34 Oeste 0 -- -- 41
2019-11-23 15:00:00 19.5 15 Oeste 31 Oeste 0 -- -- 37
2019-11-23 14:00:00 19.1 14 Noroeste 33 Oeste 0 -- -- 39
2019-11-23 13:00:00 18.8 11 Oeste 30 Noroeste 0 -- -- 42
2019-11-23 12:00:00 18.3 16 Noroeste 36 Sudoeste 0 -- -- 47
2019-11-23 11:00:00 16.3 32 Sudoeste 44 Sudoeste 0 -- -- 65
2019-11-23 10:00:00 16.9 13 Sudoeste 32 Sudoeste 0 -- -- 60
2019-11-23 09:00:00 15.6 17 Oeste 31 Sudoeste 0 -- -- 58
2019-11-23 08:00:00 15.4 10 Oeste 43 Sudoeste 0 -- -- 67
2019-11-23 07:00:00 15.2 28 Oeste 52 Oeste 0 -- -- 72
2019-11-23 06:00:00 15.8 37 Sudoeste 52 Oeste 0 -- -- 64
2019-11-23 05:00:00 16.1 30 Oeste 56 Oeste 0 -- -- 63
2019-11-23 04:00:00 16.1 26 Oeste 57 Oeste 0 -- -- 62
2019-11-23 03:00:00 16.7 28 Sudoeste 50 Oeste 0 -- -- 61
2019-11-23 02:00:00 16.5 25 Oeste 51 Sudoeste 0 -- -- 63
2019-11-23 01:00:00 16.5 27 Oeste 42 Oeste 0 -- -- 67
2019-11-23 00:00:00 17.8 18 Oeste 44 Oeste 0 -- -- 53
2019-11-22 23:00:00 18.1 10 Oeste 37 Oeste 0 -- -- 52
2019-11-22 22:00:00 17.6 22 Oeste 44 Oeste 0 -- -- 76
2019-11-22 21:00:00 16.9 32 Oeste 45 Sudoeste 0.8 -- -- 97
2019-11-22 20:00:00 15.9 27 Sudoeste 71 Oeste 1.2 -- -- 96
2019-11-22 19:00:00 17.4 39 Oeste 81 Sudoeste 0 -- -- 89
2019-11-22 18:00:00 18 48 Sudoeste 66 Oeste 0 -- -- 84
2019-11-22 17:00:00 16.9 40 Sudoeste 58 Sudoeste 0 -- -- 87
2019-11-22 16:00:00 15.4 38 Oeste 64 Sudoeste 0.6 -- -- 96
2019-11-22 15:00:00 15.4 49 Sudoeste 61 Sudoeste 0.6 -- -- 95
2019-11-22 14:00:00 15.5 42 Sudoeste 51 Sudoeste 0 -- -- 92
2019-11-22 13:00:00 15.3 36 Sudoeste 49 Sudoeste 0 -- -- 93
2019-11-22 12:00:00 15 30 Sudoeste 45 Sudoeste 0 -- -- 95
2019-11-22 11:00:00 14.9 24 Sudoeste 48 Sudoeste 0 -- -- 96
2019-11-22 10:00:00 14.8 33 Sudoeste 46 Sudoeste 0 -- -- 98
2019-11-22 09:00:00 14.7 15 Sudoeste 24 Sudoeste 3.4 -- -- 98
2019-11-22 08:00:00 14.5 9 Oeste 22 Sudoeste 2.8 -- -- 98
2019-11-22 07:00:00 14.3 12 Sudoeste 23 Sudoeste 0.4 -- -- 97
2019-11-22 06:00:00 14.5 21 Sudoeste 31 Oeste 0 -- -- 97
2019-11-22 05:00:00 14.5 16 Oeste 28 Sudoeste 0 -- -- 97
2019-11-22 04:00:00 14.6 21 Sudoeste 31 Oeste 0 -- -- 98
2019-11-22 03:00:00 14.5 21 Sudoeste 27 Oeste 0 -- -- 98
2019-11-22 02:00:00 14.3 3 Noroeste 6 Noroeste 0 -- -- 98
2019-11-22 01:00:00 14.1 3 Oeste 5 Oeste 0 -- -- 98
2019-11-22 00:00:00 14.1 3 Norte 8 Noroeste 0 -- -- 98
2019-11-21 23:00:00 14.1 2 Nordeste 4 Nordeste 0 -- -- 98
2019-11-21 22:00:00 14.1 0 Calma 5 Oeste 0 -- -- 98
2019-11-21 21:00:00 14.7 2 Noroeste 10 Oeste 0 -- -- 97
2019-11-21 20:00:00 14.5 6 Oeste 10 Oeste 0 -- -- 97
2019-11-21 19:00:00 14.5 3 Oeste 19 Noroeste 0 -- -- 98
2019-11-21 18:00:00 14.4 4 Oeste 13 Sudoeste 0 -- -- 97
2019-11-21 17:00:00 13.7 9 Este 15 Este 0 -- -- 97
2019-11-21 16:00:00 13.7 10 Este 16 Este 0.4 -- -- 97
2019-11-21 15:00:00 14.1 6 Este 9 Este 2.2 -- -- 96
2019-11-21 14:00:00 14.1 4 Este 10 Este 0 -- -- 96
2019-11-21 13:00:00 13.9 5 Nordeste 9 Nordeste 0 -- -- 96
2019-11-21 12:00:00 13.3 6 Nordeste 8 Nordeste 0.2 -- -- 97
2019-11-21 11:00:00 13.1 8 Nordeste 10 Nordeste 2.6 -- -- 97
2019-11-21 10:00:00 13 5 Nordeste 9 Norte 3.2 -- -- 96
2019-11-21 09:00:00 12.9 0 Calma 8 Noroeste 0 -- -- 96
2019-11-21 08:00:00 12.7 5 Norte 12 Norte 2 -- -- 95
2019-11-21 07:00:00 12.5 3 Sudoeste 8 Noroeste 0 -- -- 95
2019-11-21 06:00:00 12.3 2 Noroeste 10 Noroeste 0 -- -- 95
2019-11-21 05:00:00 12.1 5 Norte 10 Noroeste 0.4 -- -- 94
2019-11-21 04:00:00 11.9 6 Noroeste 14 Norte 0.4 -- -- 93
2019-11-21 03:00:00 12 2 Norte 5 Norte 0 -- -- 91
2019-11-21 02:00:00 11.7 3 Nordeste 7 Sudoeste 0 -- -- 92
2019-11-21 01:00:00 12.2 0 Calma 8 Noroeste 0 -- -- 91
2019-11-21 00:00:00 12.4 2 Oeste 11 Noroeste 0 -- -- 90
2019-11-20 23:00:00 12.6 2 Noroeste 9 Oeste 0 -- -- 89
2019-11-20 22:00:00 13 4 Oeste 7 Oeste 0 -- -- 89
2019-11-20 21:00:00 13 3 Oeste 7 Oeste 0 -- -- 89
2019-11-20 20:00:00 13.1 4 Oeste 8 Sudoeste 0 -- -- 89
2019-11-20 19:00:00 12.9 2 Oeste 9 Oeste 0 -- -- 90
2019-11-20 18:00:00 12.8 5 Noroeste 9 Noroeste 0 -- -- 91
2019-11-20 17:00:00 13.1 2 Oeste 8 Noroeste 0 -- -- 88
2019-11-20 16:00:00 13.1 2 Oeste 9 Sur 0 -- -- 87
2019-11-20 15:00:00 12.6 5 Sur 10 Sudeste 0 -- -- 89
2019-11-20 14:00:00 12.8 4 Sudeste 6 Nordeste 0 -- -- 89
2019-11-20 13:00:00 12.6 6 Nordeste 7 Este 0 -- -- 89
2019-11-20 12:00:00 12 3 Norte 9 Norte 0 -- -- 85
2019-11-20 11:00:00 12 4 Norte 8 Norte 0.2 -- -- 74
2019-11-20 10:00:00 12.4 4 Noroeste 12 Noroeste 0 -- -- 65
2019-11-20 09:00:00 10.9 9 Noroeste 16 Norte 0 -- -- 67
2019-11-20 08:00:00 9.4 8 Noroeste 17 Norte 0 -- -- 72
2019-11-20 07:00:00 9.4 6 Noroeste 13 Noroeste 0 -- -- 73
2019-11-20 06:00:00 9.7 9 Noroeste 14 Noroeste 0 -- -- 72
2019-11-20 05:00:00 10.4 9 Noroeste 14 Norte 0 -- -- 70
2019-11-20 04:00:00 10.8 9 Noroeste 13 Noroeste 0 -- -- 68
2019-11-20 03:00:00 11.8 6 Noroeste 13 Norte 0 -- -- 65
2019-11-20 02:00:00 11.8 6 Norte 10 Noroeste 0 -- -- 65
2019-11-20 01:00:00 12.5 6 Norte 11 Norte 0 -- -- 64
2019-11-20 00:00:00 13 4 Norte 9 Norte 0 -- -- 63
2019-11-19 23:00:00 13.5 4 Norte 8 Norte 0 -- -- 64
2019-11-19 22:00:00 13.8 2 Norte 8 Nordeste 0 -- -- 65
2019-11-19 21:00:00 14.2 2 Oeste 9 Oeste 0 -- -- 67
2019-11-19 20:00:00 14 4 Oeste 9 Noroeste 0 -- -- 68
2019-11-19 19:00:00 14.3 4 Noroeste 20 Este 0 -- -- 72
2019-11-19 18:00:00 15.2 10 Este 18 Nordeste 0 -- -- 72
2019-11-19 17:00:00 15.2 5 Sur 14 Sur 0 -- -- 77
2019-11-19 16:00:00 15.1 13 Sur 18 Sur 0 -- -- 78
2019-11-19 15:00:00 16.1 8 Sur 13 Sur 0 -- -- 71
2019-11-19 14:00:00 16.1 3 Este 9 Este 0 -- -- 62
2019-11-19 13:00:00 17.1 4 Nordeste 6 Nordeste 0 -- -- 60
2019-11-19 12:00:00 14.6 6 Sur 10 Sur 0 -- -- 66
2019-11-19 11:00:00 14.2 6 Sur 9 Sudoeste 0 -- -- 60
2019-11-19 10:00:00 14.8 0 Calma 15 Noroeste 0 -- -- 50
2019-11-19 09:00:00 11.4 9 Norte 15 Noroeste 0 -- -- 53
2019-11-19 08:00:00 10.7 4 Noroeste 15 Oeste 0 -- -- 56
2019-11-19 07:00:00 11.1 8 Norte 14 Norte 0 -- -- 53
2019-11-19 06:00:00 10.4 4 Noroeste 8 Noroeste 0 -- -- 60
2019-11-19 05:00:00 11.2 4 Noroeste 13 Noroeste 0 -- -- 57
2019-11-19 04:00:00 11.8 6 Oeste 12 Oeste 0 -- -- 56
2019-11-19 03:00:00 12.4 8 Noroeste 16 Noroeste 0 -- -- 50
2019-11-19 02:00:00 11.4 3 Norte 20 Norte 0 -- -- 56
2019-11-19 01:00:00 11.4 12 Norte 19 Noroeste 0 -- -- 54
2019-11-19 00:00:00 11.5 9 Noroeste 14 Norte 0 -- -- 58
2019-11-18 23:00:00 12.1 8 Norte 11 Noroeste 0 -- -- 56
2019-11-18 22:00:00 12.5 3 Sudoeste 10 Noroeste 0 -- -- 60
2019-11-18 21:00:00 12.8 4 Oeste 10 Noroeste 0 -- -- 62
2019-11-18 20:00:00 13.5 5 Norte 13 Oeste 0 -- -- 57
2019-11-18 19:00:00 14.3 4 Oeste 12 Sur 0 -- -- 68
2019-11-18 18:00:00 15.1 9 Sur 13 Sur 0 -- -- 70
2019-11-18 17:00:00 16.4 7 Sudeste 17 Sur 0 -- -- 56
2019-11-18 16:00:00 16.7 6 Sudeste 12 Sudeste 0 -- -- 64
2019-11-18 15:00:00 17.3 3 Sur 17 Sur 0 -- -- 57
2019-11-18 14:00:00 15.3 14 Sur 19 Sudeste 0 -- -- 69
2019-11-18 13:00:00 15.9 13 Sur 21 Oeste 0 -- -- 57
2019-11-18 12:00:00 17.4 7 Noroeste 25 Noroeste 0 -- -- 43
2019-11-18 11:00:00 17.1 8 Oeste 18 Sudoeste 0 -- -- 44
2019-11-18 10:00:00 15.1 14 Sudoeste 19 Oeste 0 -- -- 56
2019-11-18 09:00:00 15.7 3 Noroeste 23 Oeste 0 -- -- 48
2019-11-18 08:00:00 13.4 15 Oeste 36 Noroeste 0 -- -- 51
2019-11-18 07:00:00 13.9 5 Noroeste 38 Sudoeste 0 -- -- 62
2019-11-18 06:00:00 15.7 27 Sudoeste 51 Sudoeste 0 -- -- 69
2019-11-18 05:00:00 14.7 45 Sudoeste 53 Sudoeste 0 -- -- 89
2019-11-18 04:00:00 14.7 35 Sudoeste 53 Sudoeste 0 -- -- 87
2019-11-18 03:00:00 15.4 40 Sudoeste 56 Sudoeste 0 -- -- 84
2019-11-18 02:00:00 15.4 36 Oeste 48 Oeste 0 -- -- 84
2019-11-18 01:00:00 15.9 31 Oeste 43 Oeste 0 -- -- 81
2019-11-18 00:00:00 15.4 15 Oeste 27 Oeste 0 -- -- 85
2019-11-17 23:00:00 14.7 15 Sudoeste 37 Sudoeste 0 -- -- 90
2019-11-17 22:00:00 14.4 32 Sudoeste 47 Sudoeste 0 -- -- 92
2019-11-17 21:00:00 14.3 36 Sudoeste 48 Sudoeste 0 -- -- 92
2019-11-17 20:00:00 14.3 30 Sudoeste 40 Sudoeste 0 -- -- 91
2019-11-17 19:00:00 14.6 32 Sudoeste 47 Sudoeste 0 -- -- 90
2019-11-17 18:00:00 14.2 35 Oeste 49 Oeste 0 -- -- 90
2019-11-17 17:00:00 14.4 36 Oeste 51 Oeste 0 -- -- 87
2019-11-17 16:00:00 14.5 39 Sudoeste 55 Sudoeste 0 -- -- 84
2019-11-17 15:00:00 14.6 41 Sudoeste 60 Oeste 0 -- -- 79
2019-11-17 14:00:00 14.9 45 Oeste 58 Oeste 0 -- -- 73
2019-11-17 13:00:00 15.6 29 Oeste 37 Oeste 0 -- -- 66
2019-11-17 12:00:00 14.6 29 Oeste 41 Oeste 0 -- -- 66
2019-11-17 11:00:00 15.2 25 Oeste 37 Oeste 0 -- -- 59
2019-11-17 10:00:00 15.5 27 Oeste 38 Oeste 0 -- -- 48
2019-11-17 09:00:00 13.8 11 Oeste 22 Oeste 0 -- -- 50
2019-11-17 08:00:00 12.1 5 Noroeste 23 Oeste 0 -- -- 49
2019-11-17 07:00:00 12.5 12 Oeste 22 Oeste 0 -- -- 48
2019-11-17 06:00:00 12.3 11 Oeste 19 Oeste 0 -- -- 47
2019-11-17 05:00:00 12.5 15 Oeste 27 Oeste 0 -- -- 49
2019-11-17 04:00:00 12.9 19 Oeste 29 Oeste 0 -- -- 48
2019-11-17 03:00:00 11.6 8 Noroeste 18 Oeste 0 -- -- 48
2019-11-17 02:00:00 11.8 6 Noroeste 19 Norte 0 -- -- 47
2019-11-17 01:00:00 10.4 8 Nordeste 13 Nordeste 0 -- -- 53
2019-11-17 00:00:00 10.6 4 Norte 10 Norte 0 -- -- 52
2019-11-16 23:00:00 10.5 8 Norte 19 Norte 0 -- -- 48
2019-11-16 22:00:00 11.4 7 Noroeste 15 Norte 0 -- -- 45
2019-11-16 21:00:00 12 11 Noroeste 18 Norte 0 -- -- 43
2019-11-16 20:00:00 13.1 4 Norte 13 Oeste 0 -- -- 41
2019-11-16 19:00:00 13.9 6 Oeste 23 Noroeste 0 -- -- 47
2019-11-16 18:00:00 15.6 12 Noroeste 22 Norte 0 -- -- 36
2019-11-16 17:00:00 18.3 3 Sudoeste 24 Sudoeste 0 -- -- 39
2019-11-16 16:00:00 17.7 3 Sur 8 Este 0 -- -- 40
2019-11-16 15:00:00 16.7 7 Este 10 Este 0 -- -- 47
2019-11-16 14:00:00 15.3 4 Este 9 Sur 0 -- -- 40
2019-11-16 13:00:00 14.1 6 Sudeste 14 Sur 0 -- -- 51
2019-11-16 12:00:00 13.1 9 Sur 13 Sur 0 -- -- 59
2019-11-16 11:00:00 14.7 3 Sudeste 7 Norte 0 -- -- 47
2019-11-16 10:00:00 13 6 Norte 12 Norte 0 -- -- 49
2019-11-16 09:00:00 11 6 Norte 13 Norte 0 -- -- 52
2019-11-16 08:00:00 8.3 0 Calma 8 Oeste 0 -- -- 65
2019-11-16 07:00:00 8.9 4 Oeste 10 Oeste 0 -- -- 67
2019-11-16 06:00:00 9 4 Noroeste 11 Noroeste 0 -- -- 57
2019-11-16 05:00:00 8.9 10 Noroeste 17 Noroeste 0 -- -- 60
2019-11-16 04:00:00 9.8 2 Noroeste 12 Noroeste 0 -- -- 60
2019-11-16 03:00:00 10.2 2 Noroeste 9 Norte 0 -- -- 55
2019-11-16 02:00:00 10.7 5 Noroeste 10 Noroeste 0 -- -- 54
2019-11-16 01:00:00 10.7 3 Norte 11 Norte 0 -- -- 54
2019-11-16 00:00:00 10.5 7 Norte 11 Norte 0 -- -- 56
2019-11-15 23:00:00 11.6 0 Calma 14 Oeste 0 -- -- 55
2019-11-15 22:00:00 12 3 Oeste 9 Oeste 0 -- -- 52
2019-11-15 21:00:00 12.3 3 Noroeste 7 Oeste 0 -- -- 47
2019-11-15 20:00:00 12.9 3 Oeste 15 Noroeste 0 -- -- 48
2019-11-15 19:00:00 13.4 9 Oeste 19 Oeste 0 -- -- 46
2019-11-15 18:00:00 14.2 11 Oeste 27 Noroeste 0 -- -- 46
2019-11-15 17:00:00 14.4 10 Noroeste 31 Noroeste 0 -- -- 38
2019-11-15 16:00:00 16.3 16 Oeste 37 Oeste 0 -- -- 31
2019-11-15 15:00:00 17.1 15 Noroeste 33 Noroeste 0 -- -- 31
2019-11-15 14:00:00 16.7 11 Noroeste 39 Noroeste 0 -- -- 30
2019-11-15 13:00:00 16.2 15 Noroeste 31 Oeste 0 -- -- 30
2019-11-15 12:00:00 16.6 9 Noroeste 30 Oeste 0 -- -- 27
2019-11-15 11:00:00 16.1 8 Oeste 21 Sudoeste 0 -- -- 36
2019-11-15 10:00:00 15.2 3 Sudeste 31 Oeste 0 -- -- 33
2019-11-15 09:00:00 13.7 11 Oeste 28 Oeste 0 -- -- 40
2019-11-15 08:00:00 12 13 Oeste 39 Oeste 0 -- -- 46
2019-11-15 07:00:00 12.3 13 Oeste 28 Sudoeste 0 -- -- 51
2019-11-15 06:00:00 12.6 5 Norte 41 Sudoeste 0 -- -- 48
2019-11-15 05:00:00 12.8 12 Sudoeste 31 Oeste 0 -- -- 48
2019-11-15 04:00:00 13.2 17 Oeste 36 Sudoeste 0 -- -- 47
2019-11-15 03:00:00 13.3 10 Oeste 25 Oeste 0 -- -- 56
2019-11-15 02:00:00 13.4 10 Oeste 32 Oeste 0 -- -- 51
2019-11-15 01:00:00 13.7 14 Oeste 30 Oeste 0 -- -- 55
2019-11-15 00:00:00 13.7 19 Sudoeste 33 Oeste 0 -- -- 57
2019-11-14 23:00:00 13.7 12 Oeste 38 Oeste 0 -- -- 54
2019-11-14 22:00:00 14.1 19 Oeste 33 Oeste 0 -- -- 59
2019-11-14 21:00:00 14.6 8 Sudoeste 31 Sudoeste 0 -- -- 50
2019-11-14 20:00:00 15.1 13 Noroeste 42 Oeste 0 -- -- 44
2019-11-14 19:00:00 15 15 Noroeste 42 Noroeste 0 -- -- 45
2019-11-14 18:00:00 15.6 14 Sudeste 45 Oeste 0 -- -- 46
2019-11-14 17:00:00 16.3 11 Noroeste 43 Oeste 0 -- -- 42
2019-11-14 16:00:00 16.3 15 Noroeste 35 Oeste 0 -- -- 53
2019-11-14 15:00:00 17.5 13 Oeste 33 Oeste 0 -- -- 53
2019-11-14 14:00:00 16.3 16 Oeste 50 Sudoeste 0 -- -- 66
2019-11-14 13:00:00 15.7 32 Sudoeste 44 Sudoeste 0 -- -- 75
2019-11-14 12:00:00 16.9 26 Oeste 58 Oeste 0 -- -- 60
2019-11-14 11:00:00 17.3 26 Oeste 49 Oeste 0 -- -- 58
2019-11-14 10:00:00 16.7 13 Oeste 24 Oeste 0 -- -- 56
2019-11-14 09:00:00 16.6 10 Sur 27 Sur 0 -- -- 53
2019-11-14 08:00:00 15.5 15 Sudoeste 30 Oeste 0 -- -- 60
2019-11-14 07:00:00 15.9 9 Noroeste 32 Oeste 0 -- -- 57
2019-11-14 06:00:00 16.8 13 Oeste 27 Sudoeste 0 -- -- 60
2019-11-14 05:00:00 15.4 3 Oeste 11 Oeste 0 -- -- 70
2019-11-14 04:00:00 16.2 7 Sudoeste 30 Oeste 0 -- -- 74
2019-11-14 03:00:00 16.8 26 Oeste 40 Sudoeste 0 -- -- 70
2019-11-14 02:00:00 15.1 5 Noroeste 28 Oeste 0 -- -- 76
2019-11-14 01:00:00 15.3 21 Oeste 30 Oeste 0 -- -- 86
2019-11-14 00:00:00 15.6 19 Sudoeste 28 Sudoeste 0 -- -- 84
2019-11-13 23:00:00 15.9 22 Sudoeste 34 Sudoeste 0 -- -- 83
2019-11-13 22:00:00 16.6 21 Sudoeste 32 Oeste 0 -- -- 78
2019-11-13 21:00:00 17 25 Sudoeste 33 Sudoeste 0 -- -- 75
2019-11-13 20:00:00 17.1 22 Sudoeste 32 Sudoeste 0 -- -- 75
2019-11-13 19:00:00 17.7 21 Sudoeste 36 Sudoeste 0 -- -- 70
2019-11-13 18:00:00 19.4 20 Oeste 37 Oeste 0 -- -- 63
2019-11-13 17:00:00 20.5 28 Oeste 41 Oeste 0 -- -- 61
2019-11-13 16:00:00 19.5 27 Sudoeste 47 Sudoeste 0 -- -- 71
2019-11-13 15:00:00 17.4 42 Sudoeste 53 Sudoeste 0 -- -- 78
2019-11-13 14:00:00 17.4 37 Sudoeste 53 Sudoeste 0 -- -- 78
2019-11-13 13:00:00 18.1 34 Sudoeste 47 Oeste 0 -- -- 72
2019-11-13 12:00:00 18.7 25 Sudoeste 47 Oeste 0 -- -- 69
2019-11-13 11:00:00 18.7 33 Oeste 49 Oeste 0 -- -- 63
2019-11-13 10:00:00 18.7 26 Oeste 44 Oeste 0 -- -- 62
2019-11-13 09:00:00 18.5 25 Oeste 36 Oeste 0 -- -- 62
2019-11-13 08:00:00 16.8 7 Oeste 24 Oeste 0 -- -- 63
2019-11-13 07:00:00 16.9 7 Oeste 27 Oeste 0 -- -- 60
2019-11-13 06:00:00 16.8 7 Oeste 21 Noroeste 0 -- -- 61
2019-11-13 05:00:00 16.4 6 Noroeste 15 Norte 0 -- -- 60
2019-11-13 04:00:00 15.4 4 Oeste 16 Oeste 0 -- -- 65
2019-11-13 03:00:00 15.3 7 Oeste 13 Sudoeste 0 -- -- 70
2019-11-13 02:00:00 15.4 7 Noroeste 13 Oeste 0 -- -- 58
2019-11-13 01:00:00 14.7 5 Noroeste 26 Sudoeste 0 -- -- 63
2019-11-13 00:00:00 15.8 24 Sudoeste 39 Sudoeste 0 -- -- 72
2019-11-12 23:00:00 15.6 21 Sudoeste 36 Sudoeste 0 -- -- 72
2019-11-12 22:00:00 15.9 6 Oeste 19 Oeste 0 -- -- 68
2019-11-12 21:00:00 16.6 2 Este 23 Oeste 0 -- -- 66
2019-11-12 20:00:00 18.1 7 Noroeste 20 Oeste 0 -- -- 46
2019-11-12 19:00:00 18 9 Noroeste 21 Noroeste 0 -- -- 48
2019-11-12 18:00:00 17.3 5 Norte 10 Nordeste 0 -- -- 68
2019-11-12 17:00:00 19 6 Nordeste 10 Este 0 -- -- 64
2019-11-12 16:00:00 19 7 Nordeste 12 Este 0 -- -- 62
2019-11-12 15:00:00 17.5 6 Sudeste 17 Este 0 -- -- 78
2019-11-12 14:00:00 18.7 11 Este 14 Este 0 -- -- 71
2019-11-12 13:00:00 19.3 3 Este 10 Sudeste 0 -- -- 67
2019-11-12 12:00:00 17.3 7 Sudeste 10 Sudeste 0 -- -- 73
2019-11-12 11:00:00 17.4 6 Sur 9 Sur 0 -- -- 70
2019-11-12 10:00:00 19.3 7 Este 11 Este 0 -- -- 60
2019-11-12 09:00:00 18.8 4 Oeste 11 Noroeste 0 -- -- 58
2019-11-12 08:00:00 16.2 8 Oeste 21 Oeste 0 -- -- 67
2019-11-12 07:00:00 16.1 7 Noroeste 17 Oeste 0 -- -- 65
2019-11-12 06:00:00 16 4 Nordeste 23 Noroeste 0 -- -- 69
2019-11-12 05:00:00 17.1 9 Noroeste 26 Norte 0 -- -- 63
2019-11-12 04:00:00 17.1 12 Noroeste 18 Noroeste 0 -- -- 63
2019-11-12 03:00:00 17 7 Noroeste 15 Oeste 0 -- -- 62
2019-11-12 02:00:00 14.4 3 Nordeste 10 Noroeste 0 -- -- 79
2019-11-12 01:00:00 15.3 10 Noroeste 15 Norte 0 -- -- 76
2019-11-12 00:00:00 15.8 5 Nordeste 15 Nordeste 0 -- -- 77
2019-11-11 23:00:00 16.8 5 Noroeste 12 Norte 0 -- -- 72
2019-11-11 22:00:00 16.2 3 Norte 11 Oeste 0 -- -- 78
2019-11-11 21:00:00 17 6 Oeste 20 Oeste 0 -- -- 76
2019-11-11 20:00:00 16.3 4 Sudoeste 14 Sudoeste 0 -- -- 81
2019-11-11 19:00:00 16.1 10 Sudoeste 24 Sudoeste 0 -- -- 83
2019-11-11 18:00:00 16.6 22 Sudoeste 27 Sudoeste 0 -- -- 79
2019-11-11 17:00:00 16.6 23 Sudoeste 28 Sudoeste 0 -- -- 77
2019-11-11 16:00:00 18.7 13 Oeste 22 Oeste 0 -- -- 61
2019-11-11 15:00:00 18.9 3 Noroeste 31 Sudoeste 0 -- -- 59
2019-11-11 14:00:00 16.3 26 Sudoeste 40 Sudoeste 0 -- -- 75
2019-11-11 13:00:00 17.2 26 Oeste 38 Sudoeste 0 -- -- 71
2019-11-11 12:00:00 16.3 24 Sudoeste 39 Sudoeste 0 -- -- 71
2019-11-11 11:00:00 16.1 16 Oeste 25 Oeste 0 -- -- 66
2019-11-11 10:00:00 16.7 0 Calma 8 Oeste 0 -- -- 59
2019-11-11 09:00:00 14.7 2 Oeste 13 Oeste 0 -- -- 67
2019-11-11 08:00:00 14.2 13 Oeste 26 Sudoeste 0 -- -- 74
2019-11-11 07:00:00 14.4 15 Oeste 23 Oeste 0 -- -- 73
2019-11-11 06:00:00 14.3 14 Sudoeste 22 Sudoeste 0 -- -- 72
2019-11-11 05:00:00 14.8 10 Oeste 18 Oeste 0 -- -- 64
2019-11-11 04:00:00 14.9 9 Oeste 25 Oeste 0 -- -- 60
2019-11-11 03:00:00 15.3 8 Noroeste 32 Noroeste 0 -- -- 55
2019-11-11 02:00:00 15.5 7 Oeste 25 Oeste 0 -- -- 53
2019-11-11 01:00:00 15.5 9 Noroeste 22 Noroeste 0 -- -- 52
2019-11-11 00:00:00 15.8 12 Noroeste 25 Oeste 0 -- -- 49
2019-11-10 23:00:00 15.6 8 Noroeste 21 Noroeste 0 -- -- 49
2019-11-10 22:00:00 15.6 8 Oeste 19 Noroeste 0 -- -- 48
2019-11-10 21:00:00 15.7 9 Noroeste 23 Noroeste 0 -- -- 47
2019-11-10 20:00:00 16.2 11 Noroeste 28 Oeste 0 -- -- 45
2019-11-10 19:00:00 16.5 11 Noroeste 32 Noroeste 0 -- -- 43
2019-11-10 18:00:00 17.4 21 Noroeste 46 Noroeste 0 -- -- 36
2019-11-10 17:00:00 18.4 11 Noroeste 33 Noroeste 0 -- -- 34
2019-11-10 16:00:00 19.2 17 Noroeste 35 Noroeste 0 -- -- 33
2019-11-10 15:00:00 18.9 21 Norte 36 Norte 0 -- -- 40
2019-11-10 14:00:00 18.1 5 Este 16 Sudeste 0 -- -- 56
2019-11-10 13:00:00 16.8 13 Sudeste 23 Sudeste 0 -- -- 52
2019-11-10 12:00:00 17.3 11 Nordeste 17 Nordeste 0 -- -- 56
2019-11-10 11:00:00 16.1 13 Sur 22 Sudeste 0 -- -- 64
2019-11-10 10:00:00 18.4 8 Noroeste 30 Norte 0 -- -- 46
2019-11-10 09:00:00 16.3 14 Noroeste 28 Noroeste 0 -- -- 45
2019-11-10 08:00:00 16 15 Noroeste 34 Noroeste 0 -- -- 48
2019-11-10 07:00:00 16.1 9 Nordeste 20 Oeste 0 -- -- 58
2019-11-10 06:00:00 15.7 14 Sudoeste 23 Sudoeste 0 -- -- 64
2019-11-10 05:00:00 16.2 10 Oeste 39 Oeste 0 -- -- 66
2019-11-10 04:00:00 16.2 22 Oeste 34 Oeste 0 -- -- 75
2019-11-10 03:00:00 16.3 16 Oeste 35 Oeste 0 -- -- 76
2019-11-10 02:00:00 16.3 20 Oeste 33 Oeste 0 -- -- 71
2019-11-10 01:00:00 16.1 16 Oeste 41 Sudoeste 0 -- -- 71
2019-11-10 00:00:00 15.8 30 Sudoeste 36 Sudoeste 0 -- -- 76
2019-11-09 23:00:00 14.9 6 Oeste 23 Sudoeste 0 -- -- 60
2019-11-09 22:00:00 14 5 Noroeste 11 Sudoeste 0 -- -- 53
2019-11-09 21:00:00 14.4 8 Noroeste 13 Noroeste 0 -- -- 53
2019-11-09 20:00:00 15 5 Noroeste 9 Noroeste 0 -- -- 56
2019-11-09 19:00:00 15.3 4 Este 8 Nordeste 0 -- -- 61
2019-11-09 18:00:00 15.8 4 Nordeste 8 Nordeste 0 -- -- 63
2019-11-09 17:00:00 17 4 Este 7 Nordeste 0 -- -- 57
2019-11-09 16:00:00 18.4 3 Este 5 Este 0 -- -- 46
2019-11-09 15:00:00 17.2 3 Sudeste 7 Este 0 -- -- 54
2019-11-09 14:00:00 17.6 4 Este 7 Este 0 -- -- 56
2019-11-09 13:00:00 15.9 4 Este 8 Este 0 -- -- 60
2019-11-09 12:00:00 16.8 2 Sudeste 9 Sur 0 -- -- 54
2019-11-09 11:00:00 16.2 5 Sur 7 Sur 0 -- -- 50
2019-11-09 10:00:00 17.9 0 Calma 13 Noroeste 0 -- -- 42
2019-11-09 09:00:00 13.6 11 Noroeste 20 Noroeste 0 -- -- 45
2019-11-09 08:00:00 10.9 12 Noroeste 17 Norte 0 -- -- 53
2019-11-09 07:00:00 10.9 11 Noroeste 19 Norte 0 -- -- 54
2019-11-09 06:00:00 11.4 11 Norte 20 Norte 0 -- -- 53
2019-11-09 05:00:00 11.6 10 Norte 18 Noroeste 0 -- -- 53
2019-11-09 04:00:00 11.7 10 Norte 15 Norte 0 -- -- 53
2019-11-09 03:00:00 11.9 10 Norte 15 Norte 0 -- -- 51
2019-11-09 02:00:00 12.7 10 Norte 17 Norte 0 -- -- 48
2019-11-09 01:00:00 12.1 11 Norte 19 Norte 0 -- -- 49
2019-11-09 00:00:00 11.9 10 Norte 18 Norte 0 -- -- 52
2019-11-08 23:00:00 12.2 8 Noroeste 15 Noroeste 0 -- -- 52
2019-11-08 22:00:00 12.6 10 Norte 15 Noroeste 0 -- -- 53
2019-11-08 21:00:00 13.9 5 Noroeste 15 Norte 0 -- -- 49
2019-11-08 20:00:00 15.4 7 Oeste 22 Oeste 0 -- -- 43
2019-11-08 19:00:00 15.8 12 Oeste 27 Noroeste 0 -- -- 46
2019-11-08 18:00:00 16.9 15 Noroeste 26 Noroeste 0 -- -- 41
2019-11-08 17:00:00 18.5 12 Noroeste 24 Noroeste 0 -- -- 36
2019-11-08 16:00:00 18.5 15 Noroeste 34 Noroeste 0 -- -- 33
2019-11-08 15:00:00 18.9 10 Noroeste 39 Noroeste 0 -- -- 36
2019-11-08 14:00:00 18.3 15 Noroeste 33 Noroeste 0 -- -- 35
2019-11-08 13:00:00 17.8 17 Noroeste 34 Noroeste 0 -- -- 36
2019-11-08 12:00:00 17.5 14 Noroeste 28 Noroeste 0 -- -- 40
2019-11-08 11:00:00 16.8 14 Noroeste 32 Norte 0 -- -- 43
2019-11-08 10:00:00 17.1 6 Noroeste 21 Oeste 0 -- -- 45
2019-11-08 09:00:00 15 12 Oeste 21 Oeste 0 -- -- 62
2019-11-08 08:00:00 13.6 5 Noroeste 13 Noroeste 0 -- -- 56
2019-11-08 07:00:00 13.3 6 Oeste 31 Noroeste 0 -- -- 59
2019-11-08 06:00:00 13.4 10 Oeste 25 Noroeste 0 -- -- 65
2019-11-08 05:00:00 13.9 9 Noroeste 23 Oeste 0 -- -- 54
2019-11-08 04:00:00 14 10 Oeste 22 Sudoeste 0 -- -- 54
2019-11-08 03:00:00 14.2 15 Oeste 26 Sudoeste 0 -- -- 57
2019-11-08 02:00:00 14.8 10 Oeste 20 Oeste 0 -- -- 51
2019-11-08 01:00:00 15.5 9 Noroeste 22 Noroeste 0 -- -- 46
2019-11-08 00:00:00 15.7 8 Noroeste 23 Noroeste 0 -- -- 48